sensor_id;sensor_type;location;lat;lon;timestamp;temperature;humidity
14934;DHT22;7560;51.364;12.384;2024-02-26T00:02:10;4.30;99.90
14934;DHT22;7560;51.364;12.384;2024-02-26T00:07:12;4.20;99.90
14934;DHT22;7560;51.364;12.384;2024-02-26T00:12:14;4.20;99.90
14934;DHT22;7560;51.364;12.384;2024-02-26T00:17:16;4.10;99.90
14934;DHT22;7560;51.364;12.384;2024-02-26T00:22:18;4.10;99.90
14934;DHT22;7560;51.364;12.384;2024-02-26T00:27:20;4.10;99.90
14934;DHT22;7560;51.364;12.384;2024-02-26T00:32:22;4.10;99.90
14934;DHT22;7560;51.364;12.384;2024-02-26T00:37:24;4.10;99.90
14934;DHT22;7560;51.364;12.384;2024-02-26T00:42:25;4.20;99.90
14934;DHT22;7560;51.364;12.384;2024-02-26T00:47:27;4.20;99.90
14934;DHT22;7560;51.364;12.384;2024-02-26T00:52:29;4.10;99.90
14934;DHT22;7560;51.364;12.384;2024-02-26T00:57:31;4.00;99.90
14934;DHT22;7560;51.364;12.384;2024-02-26T01:02:33;4.00;99.90
14934;DHT22;7560;51.364;12.384;2024-02-26T01:07:34;4.00;99.90
14934;DHT22;7560;51.364;12.384;2024-02-26T01:12:38;4.00;99.90
14934;DHT22;7560;51.364;12.384;2024-02-26T01:17:40;4.00;99.90
14934;DHT22;7560;51.364;12.384;2024-02-26T01:22:43;4.00;99.90
14934;DHT22;7560;51.364;12.384;2024-02-26T01:27:45;3.90;99.90
14934;DHT22;7560;51.364;12.384;2024-02-26T01:32:47;3.90;99.90
14934;DHT22;7560;51.364;12.384;2024-02-26T01:37:49;3.90;99.90
14934;DHT22;7560;51.364;12.384;2024-02-26T01:42:52;3.90;99.90
14934;DHT22;7560;51.364;12.384;2024-02-26T01:47:54;3.90;99.90
14934;DHT22;7560;51.364;12.384;2024-02-26T01:52:57;3.90;99.90
14934;DHT22;7560;51.364;12.384;2024-02-26T01:57:59;3.90;99.90
14934;DHT22;7560;51.364;12.384;2024-02-26T02:03:02;4.00;99.90
14934;DHT22;7560;51.364;12.384;2024-02-26T02:08:05;4.10;99.90
14934;DHT22;7560;51.364;12.384;2024-02-26T02:13:07;4.00;99.90
14934;DHT22;7560;51.364;12.384;2024-02-26T02:18:09;4.00;99.90
14934;DHT22;7560;51.364;12.384;2024-02-26T02:23:11;4.00;99.90
14934;DHT22;7560;51.364;12.384;2024-02-26T02:28:13;4.00;99.90
14934;DHT22;7560;51.364;12.384;2024-02-26T02:33:16;3.80;99.90
14934;DHT22;7560;51.364;12.384;2024-02-26T02:38:19;3.80;99.90
14934;DHT22;7560;51.364;12.384;2024-02-26T02:43:20;3.70;99.90
14934;DHT22;7560;51.364;12.384;2024-02-26T02:48:22;3.70;99.90
14934;DHT22;7560;51.364;12.384;2024-02-26T02:53:24;3.70;99.90
14934;DHT22;7560;51.364;12.384;2024-02-26T02:58:26;3.70;99.90
14934;DHT22;7560;51.364;12.384;2024-02-26T03:03:27;3.60;99.90
14934;DHT22;7560;51.364;12.384;2024-02-26T03:08:30;3.50;99.90
14934;DHT22;7560;51.364;12.384;2024-02-26T03:13:32;3.50;99.90
14934;DHT22;7560;51.364;12.384;2024-02-26T03:18:34;3.60;99.90
14934;DHT22;7560;51.364;12.384;2024-02-26T03:23:37;3.60;99.90
14934;DHT22;7560;51.364;12.384;2024-02-26T03:28:38;3.70;99.90
14934;DHT22;7560;51.364;12.384;2024-02-26T03:33:40;3.60;99.90
14934;DHT22;7560;51.364;12.384;2024-02-26T03:38:42;3.60;99.90
14934;DHT22;7560;51.364;12.384;2024-02-26T03:43:44;3.60;99.90
14934;DHT22;7560;51.364;12.384;2024-02-26T03:48:47;3.50;99.90
14934;DHT22;7560;51.364;12.384;2024-02-26T03:53:49;3.50;99.90
14934;DHT22;7560;51.364;12.384;2024-02-26T03:58:50;3.50;99.90
14934;DHT22;7560;51.364;12.384;2024-02-26T04:03:52;3.50;99.90
14934;DHT22;7560;51.364;12.384;2024-02-26T04:08:54;3.40;99.90
14934;DHT22;7560;51.364;12.384;2024-02-26T04:13:56;3.30;99.90
14934;DHT22;7560;51.364;12.384;2024-02-26T04:18:58;3.30;99.90
14934;DHT22;7560;51.364;12.384;2024-02-26T04:24:00;3.30;99.90
14934;DHT22;7560;51.364;12.384;2024-02-26T04:29:03;3.30;99.90
14934;DHT22;7560;51.364;12.384;2024-02-26T04:34:05;3.30;99.90
14934;DHT22;7560;51.364;12.384;2024-02-26T04:39:07;3.30;99.90
14934;DHT22;7560;51.364;12.384;2024-02-26T04:44:09;3.30;99.90
14934;DHT22;7560;51.364;12.384;2024-02-26T04:49:11;3.30;99.90
14934;DHT22;7560;51.364;12.384;2024-02-26T04:54:13;3.30;99.90
14934;DHT22;7560;51.364;12.384;2024-02-26T04:59:15;3.30;99.90
14934;DHT22;7560;51.364;12.384;2024-02-26T05:04:17;3.30;99.90
14934;DHT22;7560;51.364;12.384;2024-02-26T05:09:19;3.40;99.90
14934;DHT22;7560;51.364;12.384;2024-02-26T05:14:21;3.50;99.90
14934;DHT22;7560;51.364;12.384;2024-02-26T05:19:23;3.40;99.90
14934;DHT22;7560;51.364;12.384;2024-02-26T05:24:25;3.40;99.90
14934;DHT22;7560;51.364;12.384;2024-02-26T05:29:27;3.50;99.90
14934;DHT22;7560;51.364;12.384;2024-02-26T05:34:29;3.50;99.90
14934;DHT22;7560;51.364;12.384;2024-02-26T05:39:32;3.60;99.90
14934;DHT22;7560;51.364;12.384;2024-02-26T05:44:34;3.50;99.90
14934;DHT22;7560;51.364;12.384;2024-02-26T05:49:35;3.50;99.90
14934;DHT22;7560;51.364;12.384;2024-02-26T05:54:37;3.50;99.90
14934;DHT22;7560;51.364;12.384;2024-02-26T05:59:39;3.50;99.90
14934;DHT22;7560;51.364;12.384;2024-02-26T06:04:41;3.30;99.90
14934;DHT22;7560;51.364;12.384;2024-02-26T06:09:43;3.30;99.90
14934;DHT22;7560;51.364;12.384;2024-02-26T06:14:45;3.20;99.90
14934;DHT22;7560;51.364;12.384;2024-02-26T06:19:46;3.30;99.90
14934;DHT22;7560;51.364;12.384;2024-02-26T06:24:48;3.30;99.90
14934;DHT22;7560;51.364;12.384;2024-02-26T06:29:50;3.40;99.90
14934;DHT22;7560;51.364;12.384;2024-02-26T06:34:54;3.40;99.90
14934;DHT22;7560;51.364;12.384;2024-02-26T06:39:56;3.50;99.90
14934;DHT22;7560;51.364;12.384;2024-02-26T06:44:58;3.60;99.90
14934;DHT22;7560;51.364;12.384;2024-02-26T06:50:00;3.70;99.90
14934;DHT22;7560;51.364;12.384;2024-02-26T06:55:03;3.70;99.90
14934;DHT22;7560;51.364;12.384;2024-02-26T07:00:05;3.80;99.90
14934;DHT22;7560;51.364;12.384;2024-02-26T07:05:07;3.90;99.90
14934;DHT22;7560;51.364;12.384;2024-02-26T07:10:09;4.00;99.90
14934;DHT22;7560;51.364;12.384;2024-02-26T07:15:13;4.10;99.90
14934;DHT22;7560;51.364;12.384;2024-02-26T07:20:15;4.20;99.90
14934;DHT22;7560;51.364;12.384;2024-02-26T07:25:19;4.30;99.90
14934;DHT22;7560;51.364;12.384;2024-02-26T07:30:22;4.50;99.90
14934;DHT22;7560;51.364;12.384;2024-02-26T07:35:25;4.60;99.90
14934;DHT22;7560;51.364;12.384;2024-02-26T07:40:29;4.70;99.90
14934;DHT22;7560;51.364;12.384;2024-02-26T07:45:30;5.00;99.90
14934;DHT22;7560;51.364;12.384;2024-02-26T07:50:32;5.20;99.90
14934;DHT22;7560;51.364;12.384;2024-02-26T07:55:34;5.40;99.90
14934;DHT22;7560;51.364;12.384;2024-02-26T08:00:36;5.50;99.90
14934;DHT22;7560;51.364;12.384;2024-02-26T08:05:38;5.60;99.90
14934;DHT22;7560;51.364;12.384;2024-02-26T08:10:41;5.70;99.90
14934;DHT22;7560;51.364;12.384;2024-02-26T08:15:43;5.80;99.90
14934;DHT22;7560;51.364;12.384;2024-02-26T08:20:45;5.80;99.90
14934;DHT22;7560;51.364;12.384;2024-02-26T08:25:47;5.90;99.90
14934;DHT22;7560;51.364;12.384;2024-02-26T08:30:49;6.00;99.90
14934;DHT22;7560;51.364;12.384;2024-02-26T08:35:51;6.20;99.90
14934;DHT22;7560;51.364;12.384;2024-02-26T08:40:53;6.30;99.90
14934;DHT22;7560;51.364;12.384;2024-02-26T08:45:54;6.50;99.90
14934;DHT22;7560;51.364;12.384;2024-02-26T08:50:57;6.80;99.90
14934;DHT22;7560;51.364;12.384;2024-02-26T08:55:59;7.10;99.90
14934;DHT22;7560;51.364;12.384;2024-02-26T09:01:01;7.40;99.90
14934;DHT22;7560;51.364;12.384;2024-02-26T09:06:03;7.70;99.90
14934;DHT22;7560;51.364;12.384;2024-02-26T09:11:05;7.90;99.90
14934;DHT22;7560;51.364;12.384;2024-02-26T09:16:06;8.20;99.90
14934;DHT22;7560;51.364;12.384;2024-02-26T09:21:08;8.40;99.90
14934;DHT22;7560;51.364;12.384;2024-02-26T09:26:10;8.60;99.90
14934;DHT22;7560;51.364;12.384;2024-02-26T09:31:12;8.80;99.90
14934;DHT22;7560;51.364;12.384;2024-02-26T09:36:14;9.10;99.90
14934;DHT22;7560;51.364;12.384;2024-02-26T09:41:16;9.00;99.90
14934;DHT22;7560;51.364;12.384;2024-02-26T09:46:18;9.30;99.90
14934;DHT22;7560;51.364;12.384;2024-02-26T09:51:23;9.50;99.90
14934;DHT22;7560;51.364;12.384;2024-02-26T09:56:28;9.60;99.90
14934;DHT22;7560;51.364;12.384;2024-02-26T10:01:32;9.60;99.90
14934;DHT22;7560;51.364;12.384;2024-02-26T10:06:36;9.90;99.90
14934;DHT22;7560;51.364;12.384;2024-02-26T10:11:40;9.90;99.90
14934;DHT22;7560;51.364;12.384;2024-02-26T10:16:44;10.10;99.90
14934;DHT22;7560;51.364;12.384;2024-02-26T10:21:46;10.00;99.90
14934;DHT22;7560;51.364;12.384;2024-02-26T10:26:48;10.50;99.90
14934;DHT22;7560;51.364;12.384;2024-02-26T10:31:51;10.90;99.90
14934;DHT22;7560;51.364;12.384;2024-02-26T10:36:53;11.10;99.90
14934;DHT22;7560;51.364;12.384;2024-02-26T10:41:56;11.10;99.90
14934;DHT22;7560;51.364;12.384;2024-02-26T10:46:58;11.10;99.90
14934;DHT22;7560;51.364;12.384;2024-02-26T10:52:00;11.30;99.90
14934;DHT22;7560;51.364;12.384;2024-02-26T10:57:03;11.20;99.90
14934;DHT22;7560;51.364;12.384;2024-02-26T11:02:09;11.10;99.90
14934;DHT22;7560;51.364;12.384;2024-02-26T11:07:12;11.20;99.90
14934;DHT22;7560;51.364;12.384;2024-02-26T11:12:14;11.20;99.90
14934;DHT22;7560;51.364;12.384;2024-02-26T11:17:18;11.20;99.90
14934;DHT22;7560;51.364;12.384;2024-02-26T11:22:20;11.30;99.90
14934;DHT22;7560;51.364;12.384;2024-02-26T11:27:31;11.10;99.90
14934;DHT22;7560;51.364;12.384;2024-02-26T11:32:35;11.40;99.90
14934;DHT22;7560;51.364;12.384;2024-02-26T11:37:37;11.40;99.90
14934;DHT22;7560;51.364;12.384;2024-02-26T11:42:45;11.50;99.90
14934;DHT22;7560;51.364;12.384;2024-02-26T11:47:56;11.60;99.90
14934;DHT22;7560;51.364;12.384;2024-02-26T11:53:20;11.50;99.90
14934;DHT22;7560;51.364;12.384;2024-02-26T11:58:22;11.70;99.90
14934;DHT22;7560;51.364;12.384;2024-02-26T12:03:24;11.60;99.90
14934;DHT22;7560;51.364;12.384;2024-02-26T12:08:27;11.80;99.90
14934;DHT22;7560;51.364;12.384;2024-02-26T12:13:30;11.60;99.90
14934;DHT22;7560;51.364;12.384;2024-02-26T12:18:32;11.70;99.90
14934;DHT22;7560;51.364;12.384;2024-02-26T12:23:36;11.60;99.90
14934;DHT22;7560;51.364;12.384;2024-02-26T12:28:37;11.50;99.90
14934;DHT22;7560;51.364;12.384;2024-02-26T12:33:39;11.70;99.90
14934;DHT22;7560;51.364;12.384;2024-02-26T12:38:41;11.70;99.90
14934;DHT22;7560;51.364;12.384;2024-02-26T12:43:43;11.70;99.90
14934;DHT22;7560;51.364;12.384;2024-02-26T12:48:48;11.80;99.90
14934;DHT22;7560;51.364;12.384;2024-02-26T12:53:50;11.80;99.90
14934;DHT22;7560;51.364;12.384;2024-02-26T12:58:55;12.00;99.90
14934;DHT22;7560;51.364;12.384;2024-02-26T13:03:57;12.10;99.90
14934;DHT22;7560;51.364;12.384;2024-02-26T13:09:00;12.10;99.90
14934;DHT22;7560;51.364;12.384;2024-02-26T13:14:03;12.20;99.90
14934;DHT22;7560;51.364;12.384;2024-02-26T13:19:10;12.30;99.90
14934;DHT22;7560;51.364;12.384;2024-02-26T13:24:15;12.30;99.90
14934;DHT22;7560;51.364;12.384;2024-02-26T13:29:18;12.20;99.90
14934;DHT22;7560;51.364;12.384;2024-02-26T13:34:27;12.00;99.90
14934;DHT22;7560;51.364;12.384;2024-02-26T13:39:29;12.10;99.90
14934;DHT22;7560;51.364;12.384;2024-02-26T13:44:32;12.10;99.90
14934;DHT22;7560;51.364;12.384;2024-02-26T13:49:35;12.10;99.90
14934;DHT22;7560;51.364;12.384;2024-02-26T13:54:37;12.30;99.90
14934;DHT22;7560;51.364;12.384;2024-02-26T13:59:40;12.60;99.90
14934;DHT22;7560;51.364;12.384;2024-02-26T14:04:44;12.70;99.90
14934;DHT22;7560;51.364;12.384;2024-02-26T14:09:46;12.70;99.90
14934;DHT22;7560;51.364;12.384;2024-02-26T14:14:51;12.50;99.90
14934;DHT22;7560;51.364;12.384;2024-02-26T14:19:55;12.30;99.90
14934;DHT22;7560;51.364;12.384;2024-02-26T14:24:57;12.40;99.90
14934;DHT22;7560;51.364;12.384;2024-02-26T14:29:59;12.50;99.90
14934;DHT22;7560;51.364;12.384;2024-02-26T14:35:01;12.50;99.90
14934;DHT22;7560;51.364;12.384;2024-02-26T14:40:04;12.30;99.90
14934;DHT22;7560;51.364;12.384;2024-02-26T14:45:07;12.40;99.90
14934;DHT22;7560;51.364;12.384;2024-02-26T14:50:11;12.20;99.90
14934;DHT22;7560;51.364;12.384;2024-02-26T14:55:13;12.10;99.90
14934;DHT22;7560;51.364;12.384;2024-02-26T15:00:15;12.00;99.90
14934;DHT22;7560;51.364;12.384;2024-02-26T15:05:16;11.90;99.90
14934;DHT22;7560;51.364;12.384;2024-02-26T15:10:21;11.80;99.90
14934;DHT22;7560;51.364;12.384;2024-02-26T15:15:22;11.70;99.90
14934;DHT22;7560;51.364;12.384;2024-02-26T15:20:24;11.50;99.90
14934;DHT22;7560;51.364;12.384;2024-02-26T15:25:26;11.50;99.90
14934;DHT22;7560;51.364;12.384;2024-02-26T15:30:28;11.50;99.90
14934;DHT22;7560;51.364;12.384;2024-02-26T15:35:31;11.40;99.90
14934;DHT22;7560;51.364;12.384;2024-02-26T15:40:32;11.40;99.90
14934;DHT22;7560;51.364;12.384;2024-02-26T15:45:34;11.30;99.90
14934;DHT22;7560;51.364;12.384;2024-02-26T15:50:36;11.30;99.90
14934;DHT22;7560;51.364;12.384;2024-02-26T15:55:39;11.30;99.90
14934;DHT22;7560;51.364;12.384;2024-02-26T16:00:42;11.20;99.90
14934;DHT22;7560;51.364;12.384;2024-02-26T16:05:44;11.10;99.90
14934;DHT22;7560;51.364;12.384;2024-02-26T16:10:47;11.00;99.90
14934;DHT22;7560;51.364;12.384;2024-02-26T16:15:53;10.90;99.90
14934;DHT22;7560;51.364;12.384;2024-02-26T16:20:58;10.80;99.90
14934;DHT22;7560;51.364;12.384;2024-02-26T16:26:00;10.80;99.90
14934;DHT22;7560;51.364;12.384;2024-02-26T16:31:02;10.70;99.90
14934;DHT22;7560;51.364;12.384;2024-02-26T16:36:04;10.70;99.90
14934;DHT22;7560;51.364;12.384;2024-02-26T16:41:06;10.60;99.90
14934;DHT22;7560;51.364;12.384;2024-02-26T16:46:08;10.50;99.90
14934;DHT22;7560;51.364;12.384;2024-02-26T16:51:10;10.50;99.90
14934;DHT22;7560;51.364;12.384;2024-02-26T16:56:13;10.40;99.90
14934;DHT22;7560;51.364;12.384;2024-02-26T17:01:15;10.30;99.90
14934;DHT22;7560;51.364;12.384;2024-02-26T17:06:17;10.20;99.90
14934;DHT22;7560;51.364;12.384;2024-02-26T17:11:24;10.10;99.90
14934;DHT22;7560;51.364;12.384;2024-02-26T17:16:26;10.10;99.90
14934;DHT22;7560;51.364;12.384;2024-02-26T17:21:28;10.10;99.90
14934;DHT22;7560;51.364;12.384;2024-02-26T17:26:30;10.00;99.90
14934;DHT22;7560;51.364;12.384;2024-02-26T17:31:33;9.90;99.90
14934;DHT22;7560;51.364;12.384;2024-02-26T17:36:39;9.90;99.90
14934;DHT22;7560;51.364;12.384;2024-02-26T17:41:40;9.90;99.90
14934;DHT22;7560;51.364;12.384;2024-02-26T17:46:43;9.90;99.90
14934;DHT22;7560;51.364;12.384;2024-02-26T17:51:45;9.90;99.90
14934;DHT22;7560;51.364;12.384;2024-02-26T17:56:47;9.90;99.90
14934;DHT22;7560;51.364;12.384;2024-02-26T18:01:49;9.80;99.90
14934;DHT22;7560;51.364;12.384;2024-02-26T18:06:51;9.80;99.90
14934;DHT22;7560;51.364;12.384;2024-02-26T18:11:54;9.70;99.90
14934;DHT22;7560;51.364;12.384;2024-02-26T18:16:58;9.70;99.90
14934;DHT22;7560;51.364;12.384;2024-02-26T18:22:00;9.60;99.90
14934;DHT22;7560;51.364;12.384;2024-02-26T18:27:02;9.60;99.90
14934;DHT22;7560;51.364;12.384;2024-02-26T18:32:06;9.50;99.90
14934;DHT22;7560;51.364;12.384;2024-02-26T18:37:08;9.50;99.90
14934;DHT22;7560;51.364;12.384;2024-02-26T18:42:10;9.40;99.90
14934;DHT22;7560;51.364;12.384;2024-02-26T18:47:13;9.30;99.90
14934;DHT22;7560;51.364;12.384;2024-02-26T18:52:15;9.30;99.90
14934;DHT22;7560;51.364;12.384;2024-02-26T18:57:18;9.30;99.90
14934;DHT22;7560;51.364;12.384;2024-02-26T19:02:20;9.20;99.90
14934;DHT22;7560;51.364;12.384;2024-02-26T19:07:22;9.10;99.90
14934;DHT22;7560;51.364;12.384;2024-02-26T19:12:23;9.10;99.90
14934;DHT22;7560;51.364;12.384;2024-02-26T19:17:26;9.10;99.90
14934;DHT22;7560;51.364;12.384;2024-02-26T19:22:28;9.00;99.90
14934;DHT22;7560;51.364;12.384;2024-02-26T19:27:30;9.10;99.90
14934;DHT22;7560;51.364;12.384;2024-02-26T19:32:33;9.00;99.90
14934;DHT22;7560;51.364;12.384;2024-02-26T19:37:35;9.00;99.90
14934;DHT22;7560;51.364;12.384;2024-02-26T19:42:37;9.00;99.90
14934;DHT22;7560;51.364;12.384;2024-02-26T19:47:39;8.80;99.90
14934;DHT22;7560;51.364;12.384;2024-02-26T19:52:41;8.90;99.90
14934;DHT22;7560;51.364;12.384;2024-02-26T19:57:44;8.90;99.90
14934;DHT22;7560;51.364;12.384;2024-02-26T20:02:46;8.80;99.90
14934;DHT22;7560;51.364;12.384;2024-02-26T20:07:48;8.80;99.90
14934;DHT22;7560;51.364;12.384;2024-02-26T20:12:50;8.80;99.90
14934;DHT22;7560;51.364;12.384;2024-02-26T20:17:53;8.70;99.90
14934;DHT22;7560;51.364;12.384;2024-02-26T20:22:55;8.70;99.90
14934;DHT22;7560;51.364;12.384;2024-02-26T20:27:57;8.60;99.90
14934;DHT22;7560;51.364;12.384;2024-02-26T20:32:59;8.50;99.90
14934;DHT22;7560;51.364;12.384;2024-02-26T20:38:01;8.50;99.90
14934;DHT22;7560;51.364;12.384;2024-02-26T20:43:03;8.40;99.90
14934;DHT22;7560;51.364;12.384;2024-02-26T20:48:05;8.40;99.90
14934;DHT22;7560;51.364;12.384;2024-02-26T20:53:07;8.30;99.90
14934;DHT22;7560;51.364;12.384;2024-02-26T20:58:14;8.20;99.90
14934;DHT22;7560;51.364;12.384;2024-02-26T21:03:16;8.10;99.90
14934;DHT22;7560;51.364;12.384;2024-02-26T21:08:19;8.00;99.90
14934;DHT22;7560;51.364;12.384;2024-02-26T21:13:37;7.90;99.90
14934;DHT22;7560;51.364;12.384;2024-02-26T21:18:39;7.90;99.90
14934;DHT22;7560;51.364;12.384;2024-02-26T21:23:41;7.80;99.90
14934;DHT22;7560;51.364;12.384;2024-02-26T21:28:43;7.80;99.90
14934;DHT22;7560;51.364;12.384;2024-02-26T21:33:45;7.80;99.90
14934;DHT22;7560;51.364;12.384;2024-02-26T21:38:48;7.80;99.90
14934;DHT22;7560;51.364;12.384;2024-02-26T21:43:51;7.70;99.90
14934;DHT22;7560;51.364;12.384;2024-02-26T21:48:55;7.70;99.90
14934;DHT22;7560;51.364;12.384;2024-02-26T21:53:57;7.70;99.90
14934;DHT22;7560;51.364;12.384;2024-02-26T21:58:59;7.70;99.90
14934;DHT22;7560;51.364;12.384;2024-02-26T22:04:01;7.70;99.90
14934;DHT22;7560;51.364;12.384;2024-02-26T22:09:04;7.70;99.90
14934;DHT22;7560;51.364;12.384;2024-02-26T22:14:06;7.90;99.90
14934;DHT22;7560;51.364;12.384;2024-02-26T22:19:08;7.80;99.90
14934;DHT22;7560;51.364;12.384;2024-02-26T22:24:14;7.80;99.90
14934;DHT22;7560;51.364;12.384;2024-02-26T22:29:16;7.80;99.90
14934;DHT22;7560;51.364;12.384;2024-02-26T22:34:18;7.80;99.90
14934;DHT22;7560;51.364;12.384;2024-02-26T22:39:21;7.80;99.90
14934;DHT22;7560;51.364;12.384;2024-02-26T22:44:23;7.80;99.90
14934;DHT22;7560;51.364;12.384;2024-02-26T22:49:25;7.70;99.90
14934;DHT22;7560;51.364;12.384;2024-02-26T22:54:27;7.80;99.90
14934;DHT22;7560;51.364;12.384;2024-02-26T22:59:29;7.60;99.90
14934;DHT22;7560;51.364;12.384;2024-02-26T23:04:32;7.60;99.90
14934;DHT22;7560;51.364;12.384;2024-02-26T23:09:33;7.60;99.90
14934;DHT22;7560;51.364;12.384;2024-02-26T23:14:36;7.60;99.90
14934;DHT22;7560;51.364;12.384;2024-02-26T23:19:38;7.50;99.90
14934;DHT22;7560;51.364;12.384;2024-02-26T23:24:40;7.50;99.90
14934;DHT22;7560;51.364;12.384;2024-02-26T23:29:42;7.50;99.90
14934;DHT22;7560;51.364;12.384;2024-02-26T23:34:44;7.50;99.90
14934;DHT22;7560;51.364;12.384;2024-02-26T23:39:46;7.50;99.90
14934;DHT22;7560;51.364;12.384;2024-02-26T23:44:48;7.50;99.90
14934;DHT22;7560;51.364;12.384;2024-02-26T23:49:50;7.50;99.90
14934;DHT22;7560;51.364;12.384;2024-02-26T23:54:52;7.50;99.90
14934;DHT22;7560;51.364;12.384;2024-02-26T23:59:53;7.40;99.90
